Home > Products > Valid Products > TAF

000
FTUS44 KLIX 032320
TAFBTR
TAF
KBTR 032320Z 0400/0424 VRB05KT P6SM SCT045=



000
FTUS44 KLIX 032320
TAFMCB
TAF
KMCB 032320Z 0400/0424 32007KT P6SM SKC=



000
FTUS44 KLIX 032320
TAFNEW
TAF
KNEW 032320Z 0400/0424 33015KT P6SM SCT250=



000
FTUS44 KLIX 032320
TAFMSY
TAF
KMSY 032320Z 0400/0424 34008KT P6SM FEW035 SCT100
     FM040800 01012KT P6SM SCT150=



000
FTUS44 KLIX 032320
TAFGPT
TAF
KGPT 032320Z 0400/0424 36010KT P6SM BKN035
     FM040200 34007KT P6SM SCT250=



000
FTUS44 KLIX 031739
TAFMCB
TAF
KMCB 031739Z 0318/0418 36004KT P6SM OVC016
     FM032200 33010KT P6SM SCT140
     FM040100 34007KT P6SM SKC
      TEMPO 0410/0413 3SM BR
     FM041400 34008G16KT P6SM SKC=



000
FTUS44 KLIX 031739
TAFNEW
TAF
KNEW 031739Z 0318/0418 32006KT P6SM OVC050
     FM032300 33011KT P6SM BKN035 BKN080
     FM040200 35016G23KT P6SM SKC=



000
FTUS44 KLIX 031739
TAFBTR
TAF
KBTR 031739Z 0318/0418 33004KT P6SM OVC016
     FM032300 33006KT P6SM SCT150
     FM040200 36009KT P6SM SKC
     FM041500 34008G17KT P6SM FEW160=



000
FTUS44 KLIX 031739
TAFMSY
TAF
KMSY 031739Z 0318/0418 33007KT P6SM OVC012
     FM032300 33011KT P6SM BKN035 BKN080
     FM040200 35015G22KT P6SM SKC=



000
FTUS44 KLIX 031739
TAFGPT
TAF
KGPT 031739Z 0318/0418 01005KT P6SM SCT016 OVC050
     FM032000 32007KT P6SM BKN025 BKN120
     FM040400 36011KT P6SM SCT090
     FM041400 35013G20KT P6SM SKC=



000
FTUS44 KLIX 031739
TAFMCB
TAF
KMCB 031739Z 0318/0418 36004KT P6SM OVC016
     FM032200 33010KT P6SM SCT140
     FM040100 34007KT P6SM SKC
      TEMPO 0410/0413 3SM BR
     FM041400 34008G16KT P6SM SKC=



000
FTUS44 KLIX 031739
TAFGPT
TAF
KGPT 031739Z 0318/0418 01005KT P6SM SCT016 OVC050
     FM032000 32007KT P6SM BKN025 BKN120
     FM040400 36011KT P6SM SCT090
     FM041400 35013G20KT P6SM SKC=



000
FTUS44 KLIX 031739
TAFBTR
TAF
KBTR 031739Z 0318/0418 33004KT P6SM OVC016
     FM032300 33006KT P6SM SCT150
     FM040200 36009KT P6SM SKC
     FM041500 34008G17KT P6SM FEW160=



000
FTUS44 KLIX 031739
TAFMSY
TAF
KMSY 031739Z 0318/0418 33007KT P6SM OVC012
     FM032300 33011KT P6SM BKN035 BKN080
     FM040200 35015G22KT P6SM SKC=



000
FTUS44 KLIX 031739
TAFNEW
TAF
KNEW 031739Z 0318/0418 32006KT P6SM OVC050
     FM032300 33011KT P6SM BKN035 BKN080
     FM040200 35016G23KT P6SM SKC=



000
FTUS44 KLIX 031203 AAA
TAFMCB
TAF AMD
KMCB 031203Z 0312/0412 36004KT P6SM SCT010 BKN045
     FM031500 01006KT P6SM OVC015
     FM031800 34006KT P6SM BKN045
     FM032100 33010KT P6SM SCT140
     FM041000 VRB03KT 3SM BR SKC=



000
FTUS44 KLIX 031203 AAA
TAFMCB
TAF AMD
KMCB 031203Z 0312/0412 36004KT P6SM SCT010 BKN045
     FM031500 01006KT P6SM OVC015
     FM031800 34006KT P6SM BKN045
     FM032100 33010KT P6SM SCT140
     FM041000 VRB03KT 3SM BR SKC=



000
FTUS44 KLIX 031120
TAFBTR
TAF
KBTR 031120Z 0312/0412 36004KT P6SM OVC010
     FM031500 36006KT P6SM BKN020
     FM031700 34007KT P6SM BKN035
     FM032100 33006KT P6SM SCT150=



000
FTUS44 KLIX 031120
TAFMSY
TAF
KMSY 031120Z 0312/0412 01007KT 5SM BR OVC005
     FM031500 01008KT P6SM BKN015
     FM031700 36007KT P6SM BKN040
     FM032300 34006KT P6SM SCT070
     FM040200 35011KT P6SM SCT120=



000
FTUS44 KLIX 031120
TAFMCB
TAF
KMCB 031120Z 0312/0412 36004KT 3SM BR BKN008 OVC020
     FM031500 01006KT P6SM OVC015
     FM031800 34006KT P6SM BKN045
     FM032100 33010KT P6SM SCT140
     FM041000 VRB03KT 3SM BR SKC=



000
FTUS44 KLIX 031120
TAFGPT
TAF
KGPT 031120Z 0312/0412 35006KT 1SM BR BKN003
     FM031300 36007KT 3SM BR BKN008
     FM031500 36007KT 5SM BR BKN015
     FM031700 36006KT P6SM BKN045
     FM032000 30007KT P6SM BKN050
     FM040400 33011KT P6SM SCT120=



000
FTUS44 KLIX 031120
TAFNEW
TAF
KNEW 031120Z 0312/0412 01013KT 5SM BR OVC005
     FM031500 01009KT P6SM BKN015
     FM031700 35007KT P6SM BKN040
     FM032300 33008KT P6SM SCT080
     FM040200 35013KT P6SM SCT120=



000
FTUS44 KLIX 031001 AAE
TAFGPT
TAF AMD
KGPT 031001Z 0310/0406 33005KT 5SM BR OVC005
      TEMPO 0310/0312 1/4SM FG VV002
     FM031400 36007KT P6SM BKN025
     FM031500 36007KT P6SM BKN035
     FM040400 33011KT P6SM SCT040 BKN080=



000
FTUS44 KLIX 030901 AAD
TAFGPT
TAF AMD
KGPT 030901Z 0309/0406 VRB03KT 1SM BR OVC003
      TEMPO 0309/0310 1/4SM FG
     FM031000 33005KT 5SM BR BKN015
     FM031400 36007KT P6SM BKN025
     FM031500 36007KT P6SM BKN035
     FM040400 33011KT P6SM SCT040 BKN080=



000
FTUS44 KLIX 030859 AAA
TAFNEW
TAF AMD
KNEW 030859Z 0309/0406 34012KT P6SM BKN008
     FM031400 34009KT P6SM BKN025
     FM031500 34009KT P6SM BKN035
     FM032200 33008KT P6SM BKN050
     FM040200 35013KT P6SM SCT050 BKN100=



000
FTUS44 KLIX 030834 AAC
TAFGPT
TAF AMD
KGPT 030834Z 0309/0406 VRB03KT 1SM BR OVC003
     FM031000 33005KT 5SM BR BKN015
     FM031400 36007KT P6SM BKN025
     FM031500 36007KT P6SM BKN035
     FM040400 33011KT P6SM SCT040 BKN080=



000
FTUS44 KLIX 030834 AAB
TAFMSY
TAF AMD
KMSY 030834Z 0309/0406 35005KT 5SM BR BKN008
     FM031300 01007KT 5SM BR BKN015
     FM031500 01008KT P6SM BKN035
     FM040300 35013KT P6SM SCT040 BKN120=



000
FTUS44 KLIX 030813 AAA
TAFMSY
TAF AMD
KMSY 030813Z 0308/0406 30004KT P6SM BKN040
     FM031000 35005KT 5SM BR BKN008
     FM031300 01007KT 5SM BR BKN015
     FM031500 01008KT P6SM BKN035
     FM040300 35013KT P6SM SCT040 BKN120=



000
FTUS44 KLIX 030701 AAB
TAFGPT
TAF AMD
KGPT 030701Z 0307/0406 VRB03KT 3SM BR BKN010
     FM031000 33005KT 5SM BR BKN015
     FM031400 36007KT P6SM BKN025
     FM031500 36007KT P6SM BKN035
     FM040400 33011KT P6SM SCT040 BKN080=



000
FTUS44 KLIX 030701 AAB
TAFGPT
TAF AMD
KGPT 030701Z 0307/0406 VRB03KT 3SM BR BKN010
     FM031000 33005KT 5SM BR BKN015
     FM031400 36007KT P6SM BKN025
     FM031500 36007KT P6SM BKN035
     FM040400 33011KT P6SM SCT040 BKN080=



000
FTUS44 KLIX 030534 AAA
TAFGPT
TAF AMD
KGPT 030534Z 0306/0406 VRB03KT 2SM BR BKN003
      TEMPO 0306/0310 1/2SM FG
     FM031000 33005KT 5SM BR BKN015
     FM031400 36007KT P6SM BKN025
     FM031500 36007KT P6SM BKN035
     FM040400 33011KT P6SM SCT040 BKN080=



000
FTUS44 KLIX 030520
TAFNEW
TAF
KNEW 030520Z 0306/0406 32005KT 3SM BR SCT010 BKN060
     FM031100 01009KT 3SM BR BKN008
     FM031400 01009KT P6SM BKN025
     FM031500 01009KT P6SM BKN035
     FM032200 33008KT P6SM BKN050
     FM040200 35013KT P6SM SCT050 BKN100=



000
FTUS44 KLIX 030520
TAFBTR
TAF
KBTR 030520Z 0306/0406 34004KT P6SM BKN035
     FM030700 35005KT P6SM BKN008
     FM031400 01006KT P6SM BKN015
     FM031500 36006KT P6SM BKN040
     FM032300 32006KT P6SM FEW050 SCT250=



000
FTUS44 KLIX 030520
TAFBTR
TAF
KBTR 030520Z 0306/0406 34004KT P6SM BKN035
     FM030700 35005KT P6SM BKN008
     FM031400 01006KT P6SM BKN015
     FM031500 36006KT P6SM BKN040
     FM032300 32006KT P6SM FEW050 SCT250=



000
FTUS44 KLIX 030520
TAFMCB
TAF
KMCB 030520Z 0306/0406 34006KT P6SM BKN008
     FM030800 35006KT 3SM BR OVC003
     FM031300 36005KT 3SM BR BKN010
     FM031500 35010KT P6SM BKN045
     FM040200 35006KT P6SM FEW250=



000
FTUS44 KLIX 030520
TAFNEW
TAF
KNEW 030520Z 0306/0406 32005KT 3SM BR SCT010 BKN060
     FM031100 01009KT 3SM BR BKN008
     FM031400 01009KT P6SM BKN025
     FM031500 01009KT P6SM BKN035
     FM032200 33008KT P6SM BKN050
     FM040200 35013KT P6SM SCT050 BKN100=



000
FTUS44 KLIX 030520
TAFMCB
TAF
KMCB 030520Z 0306/0406 34006KT P6SM BKN008
     FM030800 35006KT 3SM BR OVC003
     FM031300 36005KT 3SM BR BKN010
     FM031500 35010KT P6SM BKN045
     FM040200 35006KT P6SM FEW250=



000
FTUS44 KLIX 030520
TAFGPT
TAF
KGPT 030520Z 0306/0406 VRB03KT 3SM BR BKN010
     FM030800 VRB03KT 2SM BR BKN003
     FM031000 33005KT 5SM BR BKN015
     FM031400 36007KT P6SM BKN025
     FM031500 36007KT P6SM BKN035
     FM040400 33011KT P6SM SCT040 BKN080=



000
FTUS44 KLIX 030520
TAFMSY
TAF
KMSY 030520Z 0306/0406 30004KT 5SM BR SCT010 BKN060
     FM030800 35005KT 5SM BR BKN008
     FM031300 01007KT 5SM BR BKN015
     FM031500 01008KT P6SM BKN035
     FM040300 35013KT P6SM SCT040 BKN120=



000
FTUS44 KLIX 030520
TAFMSY
TAF
KMSY 030520Z 0306/0406 30004KT 5SM BR SCT010 BKN060
     FM030800 35005KT 5SM BR BKN008
     FM031300 01007KT 5SM BR BKN015
     FM031500 01008KT P6SM BKN035
     FM040300 35013KT P6SM SCT040 BKN120=



000
FTUS44 KLIX 030520
TAFGPT
TAF
KGPT 030520Z 0306/0406 VRB03KT 3SM BR BKN010
     FM030800 VRB03KT 2SM BR BKN003
     FM031000 33005KT 5SM BR BKN015
     FM031400 36007KT P6SM BKN025
     FM031500 36007KT P6SM BKN035
     FM040400 33011KT P6SM SCT040 BKN080=



000
FTUS44 KLIX 022321
TAFMCB
TAF
KMCB 022321Z 0300/0324 27003KT P6SM BKN250
     FM030300 34004KT P6SM BKN030
      TEMPO 0305/0309 OVC005
     FM031200 36005KT P6SM OVC015
     FM031600 35006KT P6SM BKN040=



000
FTUS44 KLIX 022321
TAFMCB
TAF
KMCB 022321Z 0300/0324 27003KT P6SM BKN250
     FM030300 34004KT P6SM BKN030
      TEMPO 0305/0309 OVC005
     FM031200 36005KT P6SM OVC015
     FM031600 35006KT P6SM BKN040=



000
FTUS44 KLIX 022321
TAFGPT
TAF
KGPT 022321Z 0300/0324 20005KT P6SM FEW010 BKN110
     FM031000 32004KT P6SM BKN015
      TEMPO 0310/0314 OVC008
     FM031900 31006KT P6SM BKN025=



000
FTUS44 KLIX 022321
TAFBTR
TAF
KBTR 022321Z 0300/0324 34004KT P6SM SCT025
     FM030800 34004KT P6SM BKN020
     FM031500 01007KT P6SM SCT035=



000
FTUS44 KLIX 022321
TAFNEW
TAF
KNEW 022321Z 0300/0324 21003KT P6SM SCT250
     FM030700 32007KT P6SM BKN035
     FM031200 36010G20KT P6SM OVC008
     FM031500 01010KT P6SM OVC015
     FM031800 34006G16KT P6SM SCT035=



000
FTUS44 KLIX 022321
TAFMSY
TAF
KMSY 022321Z 0300/0324 00000KT P6SM FEW015 OVC250
     FM030500 28005KT P6SM BKN060
     FM030900 36007KT P6SM BKN020
     FM031700 01006KT P6SM BKN035=



000
FTUS44 KLIX 022321
TAFGPT
TAF
KGPT 022321Z 0300/0324 20005KT P6SM FEW010 BKN110
     FM031000 32004KT P6SM BKN015
      TEMPO 0310/0314 OVC008
     FM031900 31006KT P6SM BKN025=



000
FTUS44 KLIX 022321
TAFBTR
TAF
KBTR 022321Z 0300/0324 34004KT P6SM SCT025
     FM030800 34004KT P6SM BKN020
     FM031500 01007KT P6SM SCT035=



000
FTUS44 KLIX 022321
TAFMSY
TAF
KMSY 022321Z 0300/0324 00000KT P6SM FEW015 OVC250
     FM030500 28005KT P6SM BKN060
     FM030900 36007KT P6SM BKN020
     FM031700 01006KT P6SM BKN035=



000
FTUS44 KLIX 022321
TAFNEW
TAF
KNEW 022321Z 0300/0324 21003KT P6SM SCT250
     FM030700 32007KT P6SM BKN035
     FM031200 36010G20KT P6SM OVC008
     FM031500 01010KT P6SM OVC015
     FM031800 34006G16KT P6SM SCT035=



000
FTUS44 KLIX 021846 AAA
TAFNEW
TAF AMD
KNEW 021846Z 0219/0318 06008KT P6SM SCT020 BKN150
     FM022100 19007KT 6SM -RA VCTS BKN040CB OVC130
     FM030300 22007KT P6SM VCSH SCT008 BKN040 OVC150
     FM030900 35011KT P6SM SCT015 BKN050=



000
FTUS44 KLIX 021839 AAA
TAFGPT
TAF AMD
KGPT 021839Z 0219/0318 16008KT P6SM SCT020
     FM022000 16004KT 6SM -RA VCTS SCT050CB OVC150
     FM030200 17003KT P6SM SCT150
     FM031200 35002KT P6SM VCSH SCT015 BKN030=



000
FTUS44 KLIX 021837 AAA
TAFMCB
TAF AMD
KMCB 021837Z 0219/0318 00000KT P6SM SCT150
     FM022100 30006KT P6SM -SHRA BKN020 OVC080
     FM030200 35002KT P6SM VCSH OVC015
     FM031200 35004KT P6SM SCT015 BKN025=



000
FTUS44 KLIX 021837 AAA
TAFMCB
TAF AMD
KMCB 021837Z 0219/0318 00000KT P6SM SCT150
     FM022100 30006KT P6SM -SHRA BKN020 OVC080
     FM030200 35002KT P6SM VCSH OVC015
     FM031200 35004KT P6SM SCT015 BKN025=



000
FTUS44 KLIX 021834 AAA
TAFMSY
TAF AMD
KMSY 021834Z 0219/0318 05003KT P6SM FEW150 BKN200
     FM022000 19007KT 6SM -RA VCTS BKN040CB OVC130
     FM030300 22007KT P6SM VCSH SCT008 BKN040 OVC150
     FM030900 30003KT P6SM VCSH SCT008 BKN040 OVC150=



000
FTUS44 KLIX 021831 AAA
TAFBTR
TAF AMD
KBTR 021831Z 0219/0318 00000KT P6SM FEW005 SCT020 BKN200
     FM022100 23006KT P6SM VCSH FEW010 BKN040 OVC150
     FM030200 30003KT P6SM VCSH SCT004 BKN040 OVC150
     FM031300 36003KT P6SM SCT004 BKN040 OVC150=



000
FTUS44 KLIX 021735
TAFMSY
TAF
KMSY 021735Z 0218/0318 05003KT P6SM FEW150 BKN200
     FM022000 19007KT 6SM -RA VCTS BKN040CB OVC130
     FM030300 22007KT P6SM VCSH SCT008 BKN040 OVC150=



000
FTUS44 KLIX 021735
TAFGPT
TAF
KGPT 021735Z 0218/0318 00000KT P6SM SCT020
     FM021900 16004KT 6SM -RA VCTS SCT050CB OVC150
     FM030200 17003KT P6SM SCT150=



000
FTUS44 KLIX 021735
TAFBTR
TAF
KBTR 021735Z 0218/0318 00000KT P6SM VCSH FEW005 SCT020 BKN200
     FM021900 23006KT P6SM -RA VCTS FEW010 BKN040CB OVC150
     FM030200 30003KT P6SM VCSH SCT004 BKN040 OVC150=



000
FTUS44 KLIX 021735
TAFMCB
TAF
KMCB 021735Z 0218/0318 00000KT P6SM SCT150
     FM021900 25006KT P6SM TSRA BKN040CB OVC150
     FM022100 30006KT P6SM -SHRA VCTS BKN020CB OVC080
     FM030200 35002KT P6SM VCSH OVC015=



000
FTUS44 KLIX 021735
TAFNEW
TAF
KNEW 021735Z 0218/0318 06008KT P6SM SCT020 BKN150
     FM022100 19007KT 6SM -RA VCTS BKN040CB OVC130
     FM030300 22007KT P6SM VCSH SCT008 BKN040 OVC150=



000
FTUS44 KLIX 021735
TAFNEW
TAF
KNEW 021735Z 0218/0318 06008KT P6SM SCT020 BKN150
     FM022100 19007KT 6SM -RA VCTS BKN040CB OVC130
     FM030300 22007KT P6SM VCSH SCT008 BKN040 OVC150=



000
FTUS44 KLIX 021735
TAFGPT
TAF
KGPT 021735Z 0218/0318 00000KT P6SM SCT020
     FM021900 16004KT 6SM -RA VCTS SCT050CB OVC150
     FM030200 17003KT P6SM SCT150=



000
FTUS44 KLIX 021735
TAFBTR
TAF
KBTR 021735Z 0218/0318 00000KT P6SM VCSH FEW005 SCT020 BKN200
     FM021900 23006KT P6SM -RA VCTS FEW010 BKN040CB OVC150
     FM030200 30003KT P6SM VCSH SCT004 BKN040 OVC150=



000
FTUS44 KLIX 021735
TAFMCB
TAF
KMCB 021735Z 0218/0318 00000KT P6SM SCT150
     FM021900 25006KT P6SM TSRA BKN040CB OVC150
     FM022100 30006KT P6SM -SHRA VCTS BKN020CB OVC080
     FM030200 35002KT P6SM VCSH OVC015=



000
FTUS44 KLIX 021735
TAFMSY
TAF
KMSY 021735Z 0218/0318 05003KT P6SM FEW150 BKN200
     FM022000 19007KT 6SM -RA VCTS BKN040CB OVC130
     FM030300 22007KT P6SM VCSH SCT008 BKN040 OVC150=



000
FTUS44 KLIX 021135
TAFBTR
TAF
KBTR 021135Z 0212/0312 00000KT P6SM VCSH FEW005 SCT020 BKN200
     FM021400 14005KT 6SM -RA VCTS BKN015CB
     FM021700 17006KT 4SM TSRA BR SCT020 OVC050CB
     FM021900 23006KT P6SM -RA VCTS FEW010 BKN040CB OVC150
     FM030200 30003KT P6SM VCSH SCT004 BKN040 OVC150=



000
FTUS44 KLIX 021135
TAFNEW
TAF
KNEW 021135Z 0212/0312 06008KT P6SM SCT020 BKN150
     FM021600 14006KT P6SM VCSH SCT020 BKN150
     FM022100 19007KT 6SM -RA VCTS BKN040CB OVC130
     FM030300 22007KT P6SM VCSH SCT008 BKN040 OVC150=



000
FTUS44 KLIX 021135
TAFMCB
TAF
KMCB 021135Z 0212/0312 00000KT P6SM SCT150
     FM021400 20008KT P6SM VCTS BKN020CB OVC150
     FM021600 24006KT 5SM -SHRA VCTS OVC025CB
     FM021900 25006KT P6SM TSRA BKN040CB OVC150
     FM022100 30006KT P6SM -SHRA VCTS BKN020CB OVC080
     FM030200 35002KT P6SM VCSH OVC015=



000
FTUS44 KLIX 021135
TAFGPT
TAF
KGPT 021135Z 0212/0312 00000KT P6SM SCT020
     FM021600 16008KT P6SM VCSH BKN025 OVC150
     FM021900 16004KT 6SM -RA VCTS SCT050CB OVC150
     FM030200 17003KT P6SM SCT150=



000
FTUS44 KLIX 021135
TAFMSY
TAF
KMSY 021135Z 0212/0312 05003KT P6SM FEW150 BKN200
     FM021500 14006KT P6SM VCSH SCT025 BKN150
     FM022000 19007KT 6SM -RA VCTS BKN040CB OVC130
     FM030300 22007KT P6SM VCSH SCT008 BKN040 OVC150=



000
FTUS44 KLIX 020520
TAFNEW
TAF
KNEW 020520Z 0206/0306 19008KT P6SM SCT150
     FM021300 13006KT P6SM BKN035
     FM021400 14007KT P6SM VCTS BKN045CB
     FM021600 17018G30KT 3SM TSRA BR BKN025CB OVC150
     FM021800 19015KT P6SM -SHRA SCT050 OVC150
      TEMPO 0220/0223 29020G35KT P6SM NSW
     FM030000 23009KT P6SM -RA OVC150=



000
FTUS44 KLIX 020520
TAFMCB
TAF
KMCB 020520Z 0206/0306 11003KT P6SM SCT015
     FM021200 VRB05KT 2SM SHRA BR OVC003
     FM021500 22010G25KT 4SM TSRA BKN020CB OVC150
     FM021700 24006KT 5SM SHRA OVC025
     FM021900 25006KT P6SM -RA SCT040 OVC150
     FM022100 30006KT P6SM SCT025=



000
FTUS44 KLIX 020520
TAFMSY
TAF
KMSY 020520Z 0206/0306 00000KT P6SM SCT070 BKN110
     FM021400 14006KT P6SM VCTS SCT025CB BKN150
     FM021600 12010G25KT P6SM TSRA BKN025CB
     FM021800 19007KT P6SM -SHRA BKN035 OVC130
     FM022100 22007KT P6SM -RA BKN035 OVC150=



000
FTUS44 KLIX 020520
TAFBTR
TAF
KBTR 020520Z 0206/0306 00000KT 3SM BR BKN002
     FM021100 VRB03KT P6SM VCTS BKN003 BKN015CB
     FM021400 14005KT 5SM SHRA BKN010
     FM021700 17006KT P6SM VCTS BKN050CB
     FM021900 23006KT P6SM -RA SCT025 OVC150
     FM030200 VRB03KT P6SM BKN150=



000
FTUS44 KLIX 020520
TAFGPT
TAF
KGPT 020520Z 0206/0306 34010KT P6SM BKN023
     FM021200 12004KT P6SM OVC015
     FM021400 15005KT P6SM VCTS OVC015CB
     FM021600 16010G25KT 3SM TSRA BKN025CB OVC150
     FM021800 31008KT P6SM -RA SCT050 OVC150
      TEMPO 0223/0302 31018G30KT P6SM NSW FEW050 BKN150
     FM030200 VRB03KT P6SM SCT150=



000
FTUS44 KLIX 020520
TAFMCB
TAF
KMCB 020520Z 0206/0306 11003KT P6SM SCT015
     FM021200 VRB05KT 2SM SHRA BR OVC003
     FM021500 22010G25KT 4SM TSRA BKN020CB OVC150
     FM021700 24006KT 5SM SHRA OVC025
     FM021900 25006KT P6SM -RA SCT040 OVC150
     FM022100 30006KT P6SM SCT025=



000
FTUS44 KLIX 020520
TAFNEW
TAF
KNEW 020520Z 0206/0306 19008KT P6SM SCT150
     FM021300 13006KT P6SM BKN035
     FM021400 14007KT P6SM VCTS BKN045CB
     FM021600 17018G30KT 3SM TSRA BR BKN025CB OVC150
     FM021800 19015KT P6SM -SHRA SCT050 OVC150
      TEMPO 0220/0223 29020G35KT P6SM NSW
     FM030000 23009KT P6SM -RA OVC150=



000
FTUS44 KLIX 020520
TAFGPT
TAF
KGPT 020520Z 0206/0306 34010KT P6SM BKN023
     FM021200 12004KT P6SM OVC015
     FM021400 15005KT P6SM VCTS OVC015CB
     FM021600 16010G25KT 3SM TSRA BKN025CB OVC150
     FM021800 31008KT P6SM -RA SCT050 OVC150
      TEMPO 0223/0302 31018G30KT P6SM NSW FEW050 BKN150
     FM030200 VRB03KT P6SM SCT150=



000
FTUS44 KLIX 020520
TAFBTR
TAF
KBTR 020520Z 0206/0306 00000KT 3SM BR BKN002
     FM021100 VRB03KT P6SM VCTS BKN003 BKN015CB
     FM021400 14005KT 5SM SHRA BKN010
     FM021700 17006KT P6SM VCTS BKN050CB
     FM021900 23006KT P6SM -RA SCT025 OVC150
     FM030200 VRB03KT P6SM BKN150=



000
FTUS44 KLIX 020520
TAFMSY
TAF
KMSY 020520Z 0206/0306 00000KT P6SM SCT070 BKN110
     FM021400 14006KT P6SM VCTS SCT025CB BKN150
     FM021600 12010G25KT P6SM TSRA BKN025CB
     FM021800 19007KT P6SM -SHRA BKN035 OVC130
     FM022100 22007KT P6SM -RA BKN035 OVC150=



000
FTUS44 KLIX 020112 AAA
TAFMSY
TAF AMD
KMSY 020112Z 0201/0224 31004G17KT P6SM FEW060 SCT100 BKN120
     FM020130 14004KT 6SM BR BKN045
     FM020600 12005KT 6SM SHRA BKN025
      TEMPO 0212/0216 20015G25KT 2SM TSRA BKN015CB OVC050
     FM021600 11004KT 6SM -SHRA OVC025=



000
FTUS44 KLIX 020112 AAA
TAFMSY
TAF AMD
KMSY 020112Z 0201/0224 31004G17KT P6SM FEW060 SCT100 BKN120
     FM020130 14004KT 6SM BR BKN045
     FM020600 12005KT 6SM SHRA BKN025
      TEMPO 0212/0216 20015G25KT 2SM TSRA BKN015CB OVC050
     FM021600 11004KT 6SM -SHRA OVC025=



000
FTUS44 KLIX 020106 AAA
TAFGPT
TAF AMD
KGPT 020106Z 0201/0224 33014G20KT P6SM OVC110
     FM020200 15006KT P6SM BKN015
     FM021700 16009KT P6SM SHRA OVC025
      TEMPO 0217/0221 VRB25KT 2SM TSRA BKN015CB OVC050=



000
FTUS44 KLIX 020103 AAA
TAFNEW
TAF AMD
KNEW 020103Z 0201/0224 15015G21KT P6SM SKC
     FM020200 15010KT P6SM SCT150
     FM020500 13005KT P6SM BKN025
     FM021100 12006KT P6SM SHRA BKN020
      TEMPO 0211/0215 VRB35KT 2SM TSRA BKN015CB
     FM021500 16006KT P6SM SHRA OVC025=



000
FTUS44 KLIX 020103 AAA
TAFNEW
TAF AMD
KNEW 020103Z 0201/0224 15015G21KT P6SM SKC
     FM020200 15010KT P6SM SCT150
     FM020500 13005KT P6SM BKN025
     FM021100 12006KT P6SM SHRA BKN020
      TEMPO 0211/0215 VRB35KT 2SM TSRA BKN015CB
     FM021500 16006KT P6SM SHRA OVC025=



000
FTUS44 KLIX 012338
TAFMSY
TAF
KMSY 012338Z 0200/0224 14018G30KT P6SM OVC110
     FM020230 14004KT 6SM BR BKN045
     FM020600 12005KT 6SM SHRA BKN025
      TEMPO 0212/0216 20015G25KT 2SM TSRA BKN015CB OVC050
     FM021600 11004KT 6SM -SHRA OVC025=



000
FTUS44 KLIX 012338
TAFNEW
TAF
KNEW 012338Z 0200/0224 15016G35KT 6SM -RA BR BKN110
     FM020230 15005KT P6SM SCT150
     FM020500 13005KT P6SM BKN025
     FM021100 12006KT P6SM SHRA BKN020
      TEMPO 0211/0215 VRB35KT 2SM TSRA BKN015CB
     FM021500 16006KT P6SM SHRA OVC025=



000
FTUS44 KLIX 012338
TAFMCB
TAF
KMCB 012338Z 0200/0224 15005KT P6SM OVC150
     FM021400 22006KT 3SM SHRA OVC025=



000
FTUS44 KLIX 012338
TAFGPT
TAF
KGPT 012338Z 0200/0224 19010G20KT P6SM OVC150
      TEMPO 0200/0202 18020G32KT
     FM020400 15006KT P6SM BKN015
     FM021200 15005KT P6SM OVC015
     FM021700 16009KT P6SM SHRA OVC025=



000
FTUS44 KLIX 012338
TAFBTR
TAF
KBTR 012338Z 0200/0224 00000KT P6SM OVC150
     FM020500 VRB03KT P6SM VCTS BKN015CB
     FM021000 VRB03KT P6SM SHRA OVC015
      TEMPO 0210/0214 VRB28KT 3SM TSRA BKN012CB
     FM021400 20006KT P6SM -SHRA OVC025=



000
FTUS44 KLIX 012031 AAA
TAFGPT
TAF AMD
KGPT 012031Z 0121/0218 08007KT 5SM -RA BR BKN040 BKN060 OVC100
     FM020100 16009KT P6SM BKN040
     FM020600 14005KT P6SM BKN010
     FM021000 13004KT 3SM BR OVC007
     FM021500 13004KT P6SM OVC015=



000
FTUS44 KLIX 011920 AAA
TAFBTR
TAF AMD
KBTR 011920Z 0119/0218 12007KT P6SM SCT035 BKN080
      TEMPO 0119/0122 3SM -TSRA BKN035CB
     FM020200 14005KT P6SM OVC015
     FM020400 13005KT P6SM BKN010
     FM020900 14003KT 2SM BR OVC007
     FM021400 14004KT P6SM OVC015=



000
FTUS44 KLIX 011744
TAFNEW
TAF
KNEW 011744Z 0118/0218 01005KT 5SM SHRA BKN030 OVC110
      TEMPO 0118/0121 2SM TSRA BKN015CB
     FM020200 15007KT P6SM OVC015
     FM020900 14003KT 3SM BR BKN008
     FM021400 14003KT P6SM BKN015=



000
FTUS44 KLIX 011744
TAFBTR
TAF
KBTR 011744Z 0118/0218 13012KT P6SM -RA OVC035
      TEMPO 0119/0122 3SM -TSRA OVC015CB
     FM020200 14005KT P6SM OVC015
     FM020400 13005KT P6SM BKN010
     FM020900 14003KT 2SM BR OVC007
     FM021400 14004KT P6SM OVC015=



000
FTUS44 KLIX 011744
TAFMCB
TAF
KMCB 011744Z 0118/0218 13010KT P6SM -RA SCT025 BKN080
      TEMPO 0118/0122 3SM -TSRA OVC015CB
     FM020200 14005KT P6SM OVC015
     FM020400 13005KT P6SM BKN010
     FM020900 14003KT 1SM BR OVC005
     FM021400 14004KT P6SM OVC015=



000
FTUS44 KLIX 011744
TAFGPT
TAF
KGPT 011744Z 0118/0218 13009KT 3SM TSRA OVC025CB
      TEMPO 0118/0121 VRB25G40KT 3/4SM +TSRA OVC007CB
     FM020100 16009KT P6SM BKN040
     FM020600 14005KT P6SM BKN010
     FM021000 13004KT 3SM BR OVC007
     FM021500 13004KT P6SM OVC015=



000
FTUS44 KLIX 011744
TAFMSY
TAF
KMSY 011744Z 0118/0218 01005KT 5SM SHRA BKN030 OVC110
      TEMPO 0118/0121 2SM TSRA BKN015CB
     FM020200 15007KT P6SM OVC015
     FM020900 14003KT 3SM BR BKN008
     FM021400 14003KT P6SM BKN015=



000
FTUS44 KLIX 011613 AAC
TAFGPT
TAF AMD
KGPT 011613Z 0116/0212 14012KT P6SM BKN009 OVC020
     FM011700 16010KT P6SM TSRA OVC015CB
      TEMPO 0117/0119 VRB30G40KT 1SM +TSRA OVC007CB
     FM020100 16009KT P6SM BKN040
     FM020600 14005KT P6SM BKN010=



000
FTUS44 KLIX 011613 AAC
TAFBTR
TAF AMD
KBTR 011613Z 0116/0212 08012KT P6SM -SHRA SCT020 OVC090
      TEMPO 0116/0118 P6SM TSRA OVC020CB
     FM011800 13012KT P6SM +SHRA OVC035
     FM020000 16006KT P6SM OVC045
     FM020200 14005KT P6SM OVC015
     FM020400 13005KT P6SM BKN010=



000
FTUS44 KLIX 011606 AAA
TAFNEW
TAF AMD
KNEW 011606Z 0116/0212 16010KT P6SM TSRA OVC015CB
      TEMPO 0116/0118 VRB35G45KT 3SM +TSRA OVC007CB
     FM011800 16009KT P6SM +SHRA OVC035
     FM020000 16009KT P6SM BKN040
     FM020200 15007KT P6SM OVC015
     FM020600 14005KT P6SM BKN010=



000
FTUS44 KLIX 011605 AAB
TAFGPT
TAF AMD
KGPT 011605Z 0116/0212 14012KT P6SM BKN009 OVC020
     FM011900 16012KT P6SM VCTS SCT012 OVC025CB
     FM020000 16008KT P6SM OVC060
     FM020200 15007KT P6SM OVC030
     FM020400 14007KT P6SM BKN010=



000
FTUS44 KLIX 011549 AAB
TAFMSY
TAF AMD
KMSY 011549Z 0116/0212 16010KT P6SM TSRA OVC015CB
      TEMPO 0116/0118 VRB35G45KT 3SM +TSRA OVC007CB
     FM011800 16009KT P6SM +SHRA OVC035
     FM020000 16009KT P6SM BKN040
     FM020200 15007KT P6SM OVC015
     FM020600 14005KT P6SM BKN010=



000
FTUS44 KLIX 011545 AAC
TAFMCB
TAF AMD
KMCB 011545Z 0116/0212 19006KT 3SM -RA BR VCTS SCT012 OVC035CB
     FM011700 17006KT 6SM TSRA OVC025CB
     FM011800 18007KT 6SM +SHRA OVC040
     FM012300 20006KT 6SM +SHRA OVC070
     FM020000 17005KT 5SM BR OVC070
     FM020700 VRB03KT 5SM BR BKN003=



000
FTUS44 KLIX 011529 AAA
TAFMSY
TAF AMD
KMSY 011529Z 0115/0212 16010KT P6SM TSRA OVC020CB
      TEMPO 0115/0118 VRB25G35KT 3SM +TSRA OVC015CB
     FM011800 16009KT P6SM +SHRA OVC035
     FM020000 16009KT P6SM BKN040
     FM020200 15007KT P6SM OVC015
     FM020600 14005KT P6SM BKN010=



000
FTUS44 KLIX 011504 AAA
TAFGPT
TAF AMD
KGPT 011504Z 0115/0212 16012KT P6SM BKN009 OVC020
     FM011600 16011KT P6SM VCTS SCT012 OVC025CB
     FM020000 16008KT P6SM OVC060
     FM020200 15007KT P6SM OVC030
     FM020400 14007KT P6SM BKN010=



000
FTUS44 KLIX 011502 AAB
TAFMCB
TAF AMD
KMCB 011502Z 0115/0212 15006KT 1 1/2SM BR VCTS SCT012 OVC035CB
     FM011600 17006KT 6SM +TSRA OVC025CB
     FM011800 18007KT 6SM +SHRA OVC040
     FM012300 20006KT 6SM +SHRA OVC070
     FM020000 17005KT 5SM BR OVC070
     FM020700 VRB03KT 5SM BR BKN003=



000
FTUS44 KLIX 011459 AAB
TAFBTR
TAF AMD
KBTR 011459Z 0115/0212 07005KT 2SM SHRA SCT020 OVC040
      TEMPO 0115/0116 VRB15G25KT 1SM +TSRA OVC020CB
     FM011600 16009KT P6SM +TSRA BKN015CB
     FM011800 16008KT P6SM +SHRA OVC040
     FM020000 16006KT P6SM OVC050
     FM020200 14005KT P6SM OVC015
     FM020400 13005KT P6SM BKN010=



000
FTUS44 KLIX 011459 AAB
TAFBTR
TAF AMD
KBTR 011459Z 0115/0212 07005KT 2SM SHRA SCT020 OVC040
      TEMPO 0115/0116 VRB15G25KT 1SM +TSRA OVC020CB
     FM011600 16009KT P6SM +TSRA BKN015CB
     FM011800 16008KT P6SM +SHRA OVC040
     FM020000 16006KT P6SM OVC050
     FM020200 14005KT P6SM OVC015
     FM020400 13005KT P6SM BKN010=



000
FTUS44 KLIX 011333 AAA
TAFBTR
TAF AMD
KBTR 011333Z 0114/0212 07005KT P6SM TS OVC012CB
      TEMPO 0114/0116 VRB15G25KT 1SM +TSRA OVC008CB
     FM011600 16009KT P6SM +TSRA BKN015CB
     FM011800 16008KT P6SM +SHRA OVC040
     FM020000 16006KT P6SM OVC050
     FM020200 14005KT P6SM OVC015
     FM020400 13005KT P6SM BKN010=



000
FTUS44 KLIX 011333 AAA
TAFBTR
TAF AMD
KBTR 011333Z 0114/0212 07005KT P6SM TS OVC012CB
      TEMPO 0114/0116 VRB15G25KT 1SM +TSRA OVC008CB
     FM011600 16009KT P6SM +TSRA BKN015CB
     FM011800 16008KT P6SM +SHRA OVC040
     FM020000 16006KT P6SM OVC050
     FM020200 14005KT P6SM OVC015
     FM020400 13005KT P6SM BKN010=



000
FTUS44 KLIX 011310 AAA
TAFMCB
TAF AMD
KMCB 011310Z 0113/0212 15006KT 4SM BR VCTS BKN006CB OVC015
     FM011500 17006KT 6SM +TSRA OVC025CB
     FM011800 18007KT 6SM +SHRA OVC040
     FM012300 20006KT 6SM +SHRA OVC070
     FM020000 17005KT 5SM BR OVC070
     FM020700 VRB03KT 5SM BR BKN003=



000
FTUS44 KLIX 011120
TAFMCB
TAF
KMCB 011120Z 0112/0212 11003KT 6SM BR BKN014 OVC060
     FM011300 17006KT 6SM +TSRA OVC025CB
     FM011800 18007KT 6SM +SHRA OVC040
     FM012300 20006KT 6SM +SHRA OVC070
     FM020000 17005KT 5SM BR OVC070
     FM020700 VRB03KT 5SM BR BKN003=



000
FTUS44 KLIX 011120
TAFGPT
TAF
KGPT 011120Z 0112/0212 16007KT P6SM BKN010 BKN013 OVC024
     FM011600 16011KT P6SM VCTS OVC025CB
     FM020000 16008KT P6SM OVC060
     FM020200 15007KT P6SM OVC030
     FM020400 14007KT P6SM BKN010=



000
FTUS44 KLIX 011120
TAFNEW
TAF
KNEW 011120Z 0112/0212 16011KT 5SM BR OVC010
     FM011500 16011KT P6SM VCTS OVC015CB
     FM011700 15011KT P6SM +TSRA OVC025CB
     FM012000 15011KT P6SM +SHRA OVC035
     FM020100 15008KT P6SM OVC020
     FM020400 15007KT P6SM BKN010=



000
FTUS44 KLIX 011120
TAFBTR
TAF
KBTR 011120Z 0112/0212 07005KT P6SM TS OVC012CB
      TEMPO 0112/0115 VRB15G25KT +TSRA
     FM011500 16009KT P6SM +TSRA BKN015CB
     FM011800 16008KT P6SM +SHRA OVC040
     FM020000 16006KT P6SM OVC050
     FM020200 14005KT P6SM OVC015
     FM020400 13005KT P6SM BKN010=



000
FTUS44 KLIX 011120
TAFMSY
TAF
KMSY 011120Z 0112/0212 15005KT 5SM BR BKN014 OVC020
     FM011500 16010KT P6SM +TSRA OVC020CB
     FM011800 16009KT P6SM +SHRA OVC040
     FM020000 16009KT P6SM BKN040
     FM020200 15007KT P6SM OVC015
     FM020600 14005KT P6SM BKN010=



000
FTUS44 KLIX 011006 AAC
TAFNEW
TAF AMD
KNEW 011006Z 0110/0206 12005KT 6SM BR OVC008
     FM011400 16009KT P6SM BKN025
      TEMPO 0115/0119 VRB35KT 2SM TSRA BKN020CB
     FM011900 16011KT P6SM VCTS OVC025CB
     FM020000 15012KT P6SM BKN050=



000
FTUS44 KLIX 011005 AAC
TAFBTR
TAF AMD
KBTR 011005Z 0110/0206 VRB04KT P6SM VCTS BKN015CB BKN050
      TEMPO 0113/0116 VRB25KT 2SM TSRA BKN015CB
     FM011900 16009KT P6SM VCSH SCT050 BKN150
     FM012300 17007KT P6SM BKN150
     FM020300 VRB03KT P6SM BKN025=



000
FTUS44 KLIX 011005 AAC
TAFBTR
TAF AMD
KBTR 011005Z 0110/0206 VRB04KT P6SM VCTS BKN015CB BKN050
      TEMPO 0113/0116 VRB25KT 2SM TSRA BKN015CB
     FM011900 16009KT P6SM VCSH SCT050 BKN150
     FM012300 17007KT P6SM BKN150
     FM020300 VRB03KT P6SM BKN025=



000
FTUS44 KLIX 010927 AAB
TAFBTR
TAF AMD
KBTR 010927Z 0109/0206 VRB04KT P6SM SCT015 OVC050
     FM011100 14005KT P6SM VCTS BKN012CB BKN050
      TEMPO 0113/0116 VRB25KT 2SM TSRA BKN022CB
     FM011900 16009KT P6SM VCSH SCT050 BKN150
     FM012300 17007KT P6SM BKN150
     FM020300 VRB03KT P6SM BKN025=



000
FTUS44 KLIX 010925 AAB
TAFNEW
TAF AMD
KNEW 010925Z 0109/0206 12005KT P6SM BKN012 OVC080
     FM011400 16009KT P6SM BKN025
      TEMPO 0115/0119 VRB35KT 2SM TSRA BKN020CB
     FM011900 16011KT P6SM VCTS OVC025CB
     FM020000 15012KT P6SM BKN050=



000
FTUS44 KLIX 010925 AAB
TAFNEW
TAF AMD
KNEW 010925Z 0109/0206 12005KT P6SM BKN012 OVC080
     FM011400 16009KT P6SM BKN025
      TEMPO 0115/0119 VRB35KT 2SM TSRA BKN020CB
     FM011900 16011KT P6SM VCTS OVC025CB
     FM020000 15012KT P6SM BKN050=



000
FTUS44 KLIX 010925 AAA
TAFMSY
TAF AMD
KMSY 010925Z 0109/0206 VRB04KT P6SM BKN012 OVC080
     FM011400 15007KT P6SM BKN025
     FM011600 16008KT P6SM VCTS OVC035CB
      TEMPO 0118/0121 VRB25KT 2SM TSRA BKN025CB
     FM012100 17011KT P6SM SCT050 BKN150=



000
FTUS44 KLIX 010922 AAB
TAFGPT
TAF AMD
KGPT 010922Z 0109/0206 15010KT P6SM OVC008
     FM011500 16011KT P6SM VCSH BKN020
      TEMPO 0117/0120 20017G28KT 2SM TSRA BKN015CB
     FM012000 16013KT P6SM SCT040 BKN150=



000
FTUS44 KLIX 010922 AAB
TAFGPT
TAF AMD
KGPT 010922Z 0109/0206 15010KT P6SM OVC008
     FM011500 16011KT P6SM VCSH BKN020
      TEMPO 0117/0120 20017G28KT 2SM TSRA BKN015CB
     FM012000 16013KT P6SM SCT040 BKN150=



000
FTUS44 KLIX 010804 AAA
TAFBTR
TAF AMD
KBTR 010804Z 0108/0206 VRB04KT P6SM SCT015 OVC050
     FM011100 14005KT P6SM VCSH BKN012
     FM011300 15007KT P6SM SHRA BKN050
      TEMPO 0113/0116 VRB25KT 2SM TSRA BKN022CB
     FM011900 16009KT P6SM VCSH SCT050 BKN150
     FM012300 17007KT P6SM BKN150
     FM020300 VRB03KT P6SM BKN025=



000
FTUS44 KLIX 010802 AAA
TAFNEW
TAF AMD
KNEW 010802Z 0108/0206 12005KT P6SM SCT015 OVC080
     FM011400 16009KT P6SM BKN025
      TEMPO 0115/0119 VRB35KT 2SM TSRA BKN020CB
     FM011900 16011KT P6SM VCTS OVC025CB
     FM020000 15012KT P6SM BKN050=



000
FTUS44 KLIX 010751 AAA
TAFGPT
TAF AMD
KGPT 010751Z 0108/0206 15010KT P6SM OVC015
     FM011500 16011KT P6SM VCSH BKN020
      TEMPO 0117/0120 20017G28KT 2SM TSRA BKN015CB
     FM012000 16013KT P6SM SCT040 BKN150=



000
FTUS44 KLIX 010531
TAFMSY
TAF
KMSY 010531Z 0106/0206 16005KT P6SM FEW250
     FM011300 15007KT P6SM BKN025
     FM011500 16008KT P6SM VCTS OVC035CB
      TEMPO 0118/0121 VRB25KT 2SM TSRA BKN025CB
     FM012100 17011KT P6SM SCT050 BKN150=



000
FTUS44 KLIX 010531
TAFMCB
TAF
KMCB 010531Z 0106/0206 15005KT P6SM OVC060
     FM011200 VRB03KT P6SM VCSH BKN011
      TEMPO 0115/0118 VRB22KT 2SM TSRA BKN015CB
     FM012000 20010KT P6SM -SHRA SCT050 OVC130=



000
FTUS44 KLIX 010531
TAFGPT
TAF
KGPT 010531Z 0106/0206 13008KT P6SM SCT080
     FM010900 15007KT P6SM BKN015
     FM011500 16011KT P6SM VCSH BKN020
      TEMPO 0117/0120 20017G28KT 2SM TSRA BKN015CB
     FM012000 16013KT P6SM SCT040 BKN150=



000
FTUS44 KLIX 010531
TAFNEW
TAF
KNEW 010531Z 0106/0206 15008KT P6SM SCT250
     FM010800 16009KT P6SM BKN025
      TEMPO 0115/0119 VRB35KT 2SM TSRA BKN020CB
     FM011900 16011KT P6SM VCTS OVC025CB
     FM020000 15012KT P6SM BKN050=



000
FTUS44 KLIX 010531
TAFBTR
TAF
KBTR 010531Z 0106/0206 13004KT P6SM SCT250
     FM010900 14005KT P6SM VCSH BKN012
     FM011300 15007KT P6SM SHRA BKN050
      TEMPO 0113/0116 VRB25KT 2SM TSRA BKN022CB
     FM011900 16009KT P6SM VCSH SCT050 BKN150
     FM012300 17007KT P6SM BKN150
     FM020300 VRB03KT P6SM BKN025=



000
FTUS44 KLIX 010531
TAFMCB
TAF
KMCB 010531Z 0106/0206 15005KT P6SM OVC060
     FM011200 VRB03KT P6SM VCSH BKN011
      TEMPO 0115/0118 VRB22KT 2SM TSRA BKN015CB
     FM012000 20010KT P6SM -SHRA SCT050 OVC130=



000
FTUS44 KLIX 010531
TAFGPT
TAF
KGPT 010531Z 0106/0206 13008KT P6SM SCT080
     FM010900 15007KT P6SM BKN015
     FM011500 16011KT P6SM VCSH BKN020
      TEMPO 0117/0120 20017G28KT 2SM TSRA BKN015CB
     FM012000 16013KT P6SM SCT040 BKN150=



000
FTUS44 KLIX 010531
TAFNEW
TAF
KNEW 010531Z 0106/0206 15008KT P6SM SCT250
     FM010800 16009KT P6SM BKN025
      TEMPO 0115/0119 VRB35KT 2SM TSRA BKN020CB
     FM011900 16011KT P6SM VCTS OVC025CB
     FM020000 15012KT P6SM BKN050=



000
FTUS44 KLIX 010531
TAFMSY
TAF
KMSY 010531Z 0106/0206 16005KT P6SM FEW250
     FM011300 15007KT P6SM BKN025
     FM011500 16008KT P6SM VCTS OVC035CB
      TEMPO 0118/0121 VRB25KT 2SM TSRA BKN025CB
     FM012100 17011KT P6SM SCT050 BKN150=



000
FTUS44 KLIX 010531
TAFBTR
TAF
KBTR 010531Z 0106/0206 13004KT P6SM SCT250
     FM010900 14005KT P6SM VCSH BKN012
     FM011300 15007KT P6SM SHRA BKN050
      TEMPO 0113/0116 VRB25KT 2SM TSRA BKN022CB
     FM011900 16009KT P6SM VCSH SCT050 BKN150
     FM012300 17007KT P6SM BKN150
     FM020300 VRB03KT P6SM BKN025=



000
FTUS44 KLIX 010048 AAA
TAFNEW
TAF AMD
KNEW 010048Z 0101/0124 20007KT P6SM SCT070 OVC090
     FM010200 16012KT P6SM BKN020
     FM010900 16007KT P6SM BKN007
     FM011500 17014KT P6SM VCTS OVC025CB=



000
FTUS44 KLIX 010047 AAA
TAFMSY
TAF AMD
KMSY 010047Z 0101/0124 15008KT P6SM FEW008 BKN070 BKN100
     FM010200 16010KT P6SM FEW035
     FM010800 16007KT 5SM BR OVC009
     FM011500 16010KT P6SM VCTS BKN025CB=



000
FTUS44 KLIX 010047 AAA
TAFMCB
TAF AMD
KMCB 010047Z 0101/0124 16015KT P6SM SKC
     FM010200 16009KT P6SM FEW015
     FM010900 17004KT 5SM BR BKN005
     FM011600 18007KT P6SM BKN035=



000
FTUS44 KLIX 010046 AAA
TAFGPT
TAF AMD
KGPT 010046Z 0101/0124 13013KT P6SM BKN110
     FM010400 15011KT P6SM BKN015
     FM010600 16012KT P6SM OVC009
     FM011500 15012KT P6SM OVC025=



    US Dept of Commerce
    National Oceanic and Atmospheric Administration
    National Weather Service
    1325 East West Highway
    Silver Spring, MD 20910
    Page Author: NWS Internet Services Team
Disclaimer
Information Quality
Credits
Glossary
Privacy Policy
Freedom of Information Act (FOIA)
About Us
Career Opportunities